Capitol Logistics 303


PGUM
Guam International Airport
Guam, GU
PHNL
Daniel K Inouye International Airport
Honolulu, US

Activity Log

Date Flight Route Aircraft Duration
09/12/2019 CPX303 DEWSS A450 JIMOS A450 NGUEN A450 BRIUN NONNI BOOKE BOOKE8 B763 7h 46m

Route Details

Aircraft Information
Primary: Boeing 767-300BDSF
Backup: Not Available
Route Data
Distance: 3303nm
Sched. Duration: 6h 50m
Avg. Duration: 7h 46m (+96m)
Times Flown: 1
Recm'd Route: DEWSS A450 JIMOS A450 NGUEN A450 BRIUN NONNI BOOKE BOOKE8
Planned Altitude: 33,000ft
Origin Wx: PGUM 181554Z 06011KT 10SM FEW041 SCT050 SCT060 24/21 A2992 RMK AO2 RAB17E27 SLP123 P0000 T02440206
Dest. Wx: PHNL 181553Z 05011KT 10SM FEW025 FEW045 23/15 A3005 RMK AO2 SLP174 T02280150
Notes:

Financial History
Total Freight: 53,844lbs
Average Load: 53,844lbs/flt
Fuel Used: 73,288lbs
Avg. Fuel Used: 73,288lbs/flt
Fuel Expense: $58,630
Avg. Fuel Expense: $58,630
Avg. Fuel Cost: $0.80/lbs
Total Gross Income: $96,381
Pilot Pay: $149
Total Expenses: $10,461
Total Revenue: $25,511
Average Revenue: $96,380.76